WetterOnline ( https://www.wetteronline.de )

Wetter aktuell Brålanda

Aktuelles Wetter: Hallum (71m)

6-stündlich | Neueste Meldungen
Ortszeit Temperatur Wetter
Di, 04.08. 2:00 10.6° C wolkenlos
Mo, 03.08. 20:00 16.6° C wolkig
Mo, 03.08. 14:00 20.5° C wolkig
Mo, 03.08. 8:00 14.9° C bedeckt
Mo, 03.08. 2:00 11.9° C wolkenlos
So, 02.08. 20:00 16.4° C leicht bewölkt
So, 02.08. 14:00 18.6° C bedeckt
So, 02.08. 8:00 16.3° C bedeckt
Ortszeit Temperatur Wetter
Di, 04.08. 5:00 10.4° C wolkenlos
Di, 04.08. 4:00 10.7° C wolkenlos
Di, 04.08. 3:00 10.5° C wolkenlos
Di, 04.08. 2:00 10.6° C wolkenlos
Di, 04.08. 1:00 10.4° C wolkenlos
Di, 04.08. 0:00 10.4° C wolkenlos
Ortszeit Relative Feuchte Sichtweite
Di, 04.08. 2:00 95% 10 km
Mo, 03.08. 20:00 64% 40 km
Mo, 03.08. 14:00 48% 30 km
Mo, 03.08. 8:00 77% 29 km
Mo, 03.08. 2:00 90% 15 km
So, 02.08. 20:00 74% 29 km
So, 02.08. 14:00 82% 30 km
So, 02.08. 8:00 79% 45 km
Ortszeit Relative Feuchte Sichtweite
Di, 04.08. 5:00 96% 7 km
Di, 04.08. 4:00 96% 9 km
Di, 04.08. 3:00 96% 10 km
Di, 04.08. 2:00 95% 10 km
Di, 04.08. 1:00 95% 11 km
Di, 04.08. 0:00 94% 13 km
Ortszeit Niederschlagsmenge Niederschlagsart
Di, 04.08. 2:00 keine Meldung -
Mo, 03.08. 20:00 0.0 l/m2 in 12 Std. -
Mo, 03.08. 14:00 keine Meldung -
Mo, 03.08. 8:00 0.0 l/m2 in 12 Std. -
Mo, 03.08. 2:00 keine Meldung -
So, 02.08. 20:00 0.1 l/m2 in 12 Std. -
So, 02.08. 14:00 0.1 l/m2 in 1 Std. Schauer
So, 02.08. 8:00 0.0 l/m2 in 12 Std. -
Ortszeit Niederschlagsmenge Niederschlagsart
Di, 04.08. 5:00 0.0 l/m2 in 1 Std. -
Di, 04.08. 4:00 0.0 l/m2 in 1 Std. -
Di, 04.08. 3:00 0.0 l/m2 in 1 Std. -
Di, 04.08. 2:00 0.0 l/m2 in 1 Std. -
Di, 04.08. 1:00 0.0 l/m2 in 1 Std. -
Di, 04.08. 0:00 0.0 l/m2 in 1 Std. -
Ortszeit Stärke Spitze Richtung
km/h Bft. km/h Grad Sektor
Di, 04.08. 2:00 9 2 - 190° S
Mo, 03.08. 20:00 14 3 29 240° SW
Mo, 03.08. 14:00 18 3 - 240° SW
Mo, 03.08. 8:00 22 4 32 240° SW
Mo, 03.08. 2:00 18 3 - 210° SW
So, 02.08. 20:00 18 3 29 240° SW
So, 02.08. 14:00 18 3 25 250° W
So, 02.08. 8:00 11 2 - 180° S
Ortszeit Stärke Spitze Richtung
km/h Bft. km/h Grad Sektor
Di, 04.08. 5:00 6 1 11 210° SW
Di, 04.08. 4:00 9 2 19 210° SW
Di, 04.08. 3:00 7 2 14 180° S
Di, 04.08. 2:00 9 2 13 190° S
Di, 04.08. 1:00 7 2 14 190° S
Di, 04.08. 0:00 9 2 15 210° SW
Ortszeit Untergrenze Bedeckung Gattung
total tief tief mittel hoch
Di, 04.08. 2:00 - 0/8 0/8 - - -
Mo, 03.08. 20:00 1110 m 6/8 6/8 - - -
Mo, 03.08. 14:00 1350 m 7/8 5/8 - - -
Mo, 03.08. 8:00 630 m 8/8 7/8 - - -
Mo, 03.08. 2:00 - 0/8 0/8 - - -
So, 02.08. 20:00 960 m 4/8 1/8 - - -
So, 02.08. 14:00 330 m 8/8 6/8 - - -
So, 02.08. 8:00 1800 m 8/8 8/8 - - -
Ortszeit Bedeckungsgrad in Achtel und Wolkenuntergrenze
Di, 04.08. 5:00 keine Wolken
Di, 04.08. 4:00 keine Wolken
Di, 04.08. 3:00 keine Wolken
Di, 04.08. 2:00 keine Wolken
Di, 04.08. 1:00 keine Wolken
Di, 04.08. 0:00 keine Wolken
Ortszeit Luftdruck NN (hPa) Tendenz (hPa in 3 Std.)
Di, 04.08. 2:00 1009 0,0
Mo, 03.08. 20:00 1009 + 0,5
Mo, 03.08. 14:00 1008 + 0,4
Mo, 03.08. 8:00 1007 + 0,2
Mo, 03.08. 2:00 1008 + 0,1
So, 02.08. 20:00 1008 - 0,3
So, 02.08. 14:00 1008 - 0,3
So, 02.08. 8:00 1009 - 1,6
Ortszeit Luftdruck NN (hPa) Tendenz (hPa in 3 Std.)
Di, 04.08. 5:00 1009 - 0,3
Di, 04.08. 4:00 1009 - 0,2
Di, 04.08. 3:00 1009 0,0
Di, 04.08. 2:00 1009 0,0
Di, 04.08. 1:00 1009 0,0
Di, 04.08. 0:00 1009 + 0,2
Ortszeit Schneehöhe (cm)
Di, 04.08. 2:00 -
Mo, 03.08. 20:00 -
Mo, 03.08. 14:00 -
Mo, 03.08. 8:00 -
Mo, 03.08. 2:00 -
So, 02.08. 20:00 -
So, 02.08. 14:00 -
So, 02.08. 8:00 -
Ortszeit Schneehöhe (cm)
Di, 04.08. 5:00 -
Di, 04.08. 4:00 -
Di, 04.08. 3:00 -
Di, 04.08. 2:00 -
Di, 04.08. 1:00 -
Di, 04.08. 0:00 -
Link zu dieser Seite / Seite empfehlen

Das Wetter in ...